Time;durP1;ratioP1;P1;durP2;ratioP2;P2;SDS_P1;SDS_P2;PMS_P1;PMS_P2;Temp;Humidity;BMP_temperature;BMP_pressure;BME280_temperature;BME280_humidity;BME280_pressure;Samples;Min_cycle;Max_cycle;Signal;HPM_P1;HPM_P2
2022/06/24 00:01:13;;;;;;;;;;;21.10;60.20;;;;;;5143576;27;20370;-45
2022/06/24 00:03:39;;;;;;;;;;;20.40;58.20;;;;;;5147280;27;19979;-51
2022/06/24 00:06:11;;;;;;;;;;;20.20;56.80;;;;;;5142547;27;19923;-44
2022/06/24 00:08:45;;;;;;;;;;;19.90;55.60;;;;;;5143487;27;20015;-48
2022/06/24 00:11:11;;;;;;;;;;;20.00;54.60;;;;;;5148855;27;19929;-46
2022/06/24 00:13:38;;;;;;;;;;;19.80;56.20;;;;;;5143846;27;20305;-46
2022/06/24 00:16:04;;;;;;;;;;;20.50;61.90;;;;;;5147965;27;19945;-58
2022/06/24 00:18:30;;;;;;;;;;;21.30;63.90;;;;;;5145195;27;19937;-45
2022/06/24 00:20:56;;;;;;;;;;;21.60;62.90;;;;;;5142146;27;20309;-46
2022/06/24 00:23:22;;;;;;;;;;;20.80;60.00;;;;;;5147052;27;19991;-45
2022/06/24 00:25:47;;;;;;;;;;;20.30;57.90;;;;;;5142601;27;19923;-50
2022/06/24 00:28:13;;;;;;;;;;;19.90;56.50;;;;;;5142959;27;19923;-45
2022/06/24 00:30:40;;;;;;;;;;;19.90;55.20;;;;;;5148724;27;19923;-46
2022/06/24 00:33:11;;;;;;;;;;;19.70;54.90;;;;;;5143173;27;20347;-47
2022/06/24 00:35:59;;;;;;;;;;;20.30;61.90;;;;;;5143544;27;20006;-46
2022/06/24 00:38:25;;;;;;;;;;;21.10;64.40;;;;;;5148337;27;20263;-46
2022/06/24 00:40:52;;;;;;;;;;;21.80;63.30;;;;;;5141062;27;20003;-49
2022/06/24 00:43:25;;;;;;;;;;;21.00;60.20;;;;;;5142872;27;19952;-52
2022/06/24 00:45:51;;;;;;;;;;;20.30;58.00;;;;;;5147978;27;19927;-47
2022/06/24 00:48:17;;;;;;;;;;;20.00;56.60;;;;;;5142616;27;19934;-45
2022/06/24 00:50:44;;;;;;;;;;;19.80;55.60;;;;;;5130028;27;20397;-46
2022/06/24 00:53:10;;;;;;;;;;;19.70;55.00;;;;;;5142392;27;20015;-47
2022/06/24 00:55:41;;;;;;;;;;;20.40;61.40;;;;;;5124122;27;19923;-47
2022/06/24 00:58:14;;;;;;;;;;;21.00;64.70;;;;;;5146584;27;19994;-47
2022/06/24 01:00:40;;;;;;;;;;;21.70;64.50;;;;;;5141558;27;19927;-45
2022/06/24 01:03:06;;;;;;;;;;;21.10;60.70;;;;;;5123613;27;19927;-46
2022/06/24 01:05:32;;;;;;;;;;;20.60;58.10;;;;;;5147642;27;20320;-45
2022/06/24 01:07:58;;;;;;;;;;;20.30;56.70;;;;;;5142440;27;20398;-46
2022/06/24 01:10:24;;;;;;;;;;;20.20;55.40;;;;;;5142795;27;19929;-56
2022/06/24 01:12:50;;;;;;;;;;;19.90;55.10;;;;;;5128765;27;19930;-46
2022/06/24 01:15:16;;;;;;;;;;;19.90;57.10;;;;;;5142313;27;20085;-47
2022/06/24 01:17:42;;;;;;;;;;;20.60;63.30;;;;;;5145569;27;19938;-50
2022/06/24 01:20:09;;;;;;;;;;;21.20;65.00;;;;;;5141644;27;19927;-46
2022/06/24 01:22:34;;;;;;;;;;;21.60;63.20;;;;;;5141691;27;19933;-46
2022/06/24 01:25:00;;;;;;;;;;;20.80;59.90;;;;;;5147628;27;19923;-47
2022/06/24 01:27:26;;;;;;;;;;;20.40;57.90;;;;;;5142231;27;19927;-48
2022/06/24 01:29:52;;;;;;;;;;;20.00;56.30;;;;;;5142293;27;20338;-45
2022/06/24 01:32:18;;;;;;;;;;;19.90;55.50;;;;;;5147321;27;19923;-44
2022/06/24 01:34:43;;;;;;;;;;;19.90;54.60;;;;;;5140768;27;19927;-50
2022/06/24 01:37:09;;;;;;;;;;;20.10;59.00;;;;;;5127441;27;19923;-49
2022/06/24 01:39:35;;;;;;;;;;;20.80;63.40;;;;;;5141571;27;19923;-51
2022/06/24 01:42:01;;;;;;;;;;;21.40;64.40;;;;;;5141720;27;20446;-49
2022/06/24 01:44:26;;;;;;;;;;;21.30;61.40;;;;;;5147433;27;19934;-47
2022/06/24 01:46:52;;;;;;;;;;;20.50;58.90;;;;;;5141772;27;19932;-45
2022/06/24 01:49:18;;;;;;;;;;;20.20;57.50;;;;;;5142170;27;19934;-45
2022/06/24 01:51:44;;;;;;;;;;;20.00;55.70;;;;;;5147314;27;20427;-45
2022/06/24 01:54:10;;;;;;;;;;;19.90;55.10;;;;;;5121418;27;19945;-47
2022/06/24 01:56:36;;;;;;;;;;;19.90;58.20;;;;;;5146509;27;19953;-48
2022/06/24 01:59:02;;;;;;;;;;;20.60;63.30;;;;;;5141359;27;19946;-47
2022/06/24 02:01:27;;;;;;;;;;;21.30;64.80;;;;;;5123292;27;20964;-46
2022/06/24 02:03:53;;;;;;;;;;;21.60;63.10;;;;;;5129646;27;20385;-46
2022/06/24 02:06:19;;;;;;;;;;;20.80;59.80;;;;;;5146413;27;20137;-45
2022/06/24 02:08:45;;;;;;;;;;;20.30;57.60;;;;;;5145938;27;19922;-46
2022/06/24 02:13:55;;;;;;;;;;;19.80;55.60;;;;;;5144925;27;19923;-46
2022/06/24 02:16:21;;;;;;;;;;;19.70;54.80;;;;;;5145369;27;19971;-47
2022/06/24 02:18:47;;;;;;;;;;;20.20;60.50;;;;;;5150963;27;20316;-48
2022/06/24 02:21:13;;;;;;;;;;;20.90;63.90;;;;;;5145881;27;19927;-46
2022/06/24 02:23:40;;;;;;;;;;;21.50;64.30;;;;;;5150847;27;20339;-47
2022/06/24 02:26:05;;;;;;;;;;;21.00;61.00;;;;;;5145649;27;19927;-47
2022/06/24 02:28:31;;;;;;;;;;;20.50;58.40;;;;;;5145396;27;19927;-44
2022/06/24 02:30:58;;;;;;;;;;;20.00;57.20;;;;;;5148856;27;20143;-47
2022/06/24 02:33:24;;;;;;;;;;;20.00;55.70;;;;;;5144826;27;19943;-45
2022/06/24 02:35:50;;;;;;;;;;;19.90;55.00;;;;;;5145005;27;20283;-47
2022/06/24 02:38:16;;;;;;;;;;;19.80;57.50;;;;;;5150695;27;20378;-46
2022/06/24 02:40:45;;;;;;;;;;;20.60;62.70;;;;;;5145438;27;20371;-45
2022/06/24 02:43:12;;;;;;;;;;;21.30;64.10;;;;;;5149345;27;20068;-53
2022/06/24 02:45:38;;;;;;;;;;;21.70;62.70;;;;;;5147800;27;20433;-47
2022/06/24 02:48:04;;;;;;;;;;;20.90;59.70;;;;;;5144274;27;19927;-49
2022/06/24 02:50:30;;;;;;;;;;;20.30;57.30;;;;;;5149379;27;19990;-47
2022/06/24 02:52:56;;;;;;;;;;;20.00;56.20;;;;;;5144766;27;20362;-45
2022/06/24 02:55:22;;;;;;;;;;;19.90;55.20;;;;;;5144821;27;20306;-45
2022/06/24 02:57:47;;;;;;;;;;;19.80;55.00;;;;;;5150399;27;20314;-46
2022/06/24 03:00:13;;;;;;;;;;;20.40;61.20;;;;;;5144921;27;19930;-46
2022/06/24 03:02:39;;;;;;;;;;;21.00;64.50;;;;;;5145860;27;19930;-56
2022/06/24 03:05:06;;;;;;;;;;;21.70;64.10;;;;;;5149705;27;19946;-48
2022/06/24 03:07:31;;;;;;;;;;;20.90;60.90;;;;;;5142667;27;19934;-47
2022/06/24 03:09:57;;;;;;;;;;;20.50;58.70;;;;;;5149118;27;19923;-44
2022/06/24 03:12:23;;;;;;;;;;;20.10;57.10;;;;;;5144316;27;19945;-45
2022/06/24 03:14:49;;;;;;;;;;;19.80;55.90;;;;;;5144567;27;19927;-45
2022/06/24 03:17:14;;;;;;;;;;;19.80;55.00;;;;;;5149077;27;19930;-45
2022/06/24 03:19:40;;;;;;;;;;;20.00;56.80;;;;;;5144854;27;19927;-46
2022/06/24 03:22:06;;;;;;;;;;;20.60;63.10;;;;;;5144318;27;19927;-46
2022/06/24 03:24:32;;;;;;;;;;;21.30;64.40;;;;;;5148957;27;20362;-47
2022/06/24 03:26:57;;;;;;;;;;;21.80;62.90;;;;;;5142893;27;19923;-46
2022/06/24 03:29:23;;;;;;;;;;;20.80;59.60;;;;;;5149394;27;19923;-45
2022/06/24 03:31:49;;;;;;;;;;;20.20;58.10;;;;;;5144044;27;19978;-46
2022/06/24 03:34:15;;;;;;;;;;;20.10;56.50;;;;;;5144248;27;19971;-45
2022/06/24 03:36:40;;;;;;;;;;;19.90;55.20;;;;;;5149802;27;20428;-44
2022/06/24 03:39:06;;;;;;;;;;;19.80;54.80;;;;;;5144260;27;19927;-46
2022/06/24 03:41:33;;;;;;;;;;;20.00;58.00;;;;;;5144334;27;20157;-45
2022/06/24 03:43:59;;;;;;;;;;;20.70;63.30;;;;;;5147679;27;20398;-47
2022/06/24 03:46:25;;;;;;;;;;;21.30;64.20;;;;;;5142938;27;19923;-45
2022/06/24 03:48:51;;;;;;;;;;;21.70;62.50;;;;;;5149155;27;19975;-47
2022/06/24 03:51:17;;;;;;;;;;;20.80;59.60;;;;;;5143845;27;19927;-45
2022/06/24 03:53:42;;;;;;;;;;;20.30;57.50;;;;;;5144061;27;19923;-46
2022/06/24 03:56:09;;;;;;;;;;;20.10;56.20;;;;;;5149435;27;20358;-47
2022/06/24 03:58:34;;;;;;;;;;;19.90;55.10;;;;;;5143730;27;19930;-46
2022/06/24 04:01:00;;;;;;;;;;;19.70;55.00;;;;;;5143496;27;20173;-46
2022/06/24 04:03:26;;;;;;;;;;;20.10;59.10;;;;;;5147496;27;20021;-51
2022/06/24 04:05:52;;;;;;;;;;;20.80;63.60;;;;;;5143140;27;19923;-45
2022/06/24 04:08:18;;;;;;;;;;;21.40;64.00;;;;;;5148194;27;20371;-59
2022/06/24 04:10:43;;;;;;;;;;;21.50;61.60;;;;;;5144462;27;20378;-47
2022/06/24 04:13:09;;;;;;;;;;;20.60;59.40;;;;;;5143640;27;19930;-45
2022/06/24 04:15:35;;;;;;;;;;;20.30;56.90;;;;;;5149012;27;19927;-45
2022/06/24 04:18:01;;;;;;;;;;;20.00;55.90;;;;;;5143288;27;19923;-47
2022/06/24 04:20:26;;;;;;;;;;;19.80;54.70;;;;;;5141922;27;20112;-48
2022/06/24 04:22:52;;;;;;;;;;;19.90;57.30;;;;;;5147545;27;19934;-47
2022/06/24 04:25:19;;;;;;;;;;;20.60;62.70;;;;;;5142943;27;20498;-47
2022/06/24 04:27:45;;;;;;;;;;;21.20;64.20;;;;;;5144194;27;20408;-54
2022/06/24 04:30:11;;;;;;;;;;;21.60;62.50;;;;;;5146603;27;20022;-44
2022/06/24 04:32:37;;;;;;;;;;;20.80;59.70;;;;;;5143100;27;20014;-46
2022/06/24 04:35:04;;;;;;;;;;;20.30;57.50;;;;;;5148561;27;20381;-47
2022/06/24 04:37:29;;;;;;;;;;;20.10;56.20;;;;;;5142589;27;20017;-49
2022/06/24 04:39:58;;;;;;;;;;;19.80;55.10;;;;;;5122235;27;19935;-45
2022/06/24 04:42:24;;;;;;;;;;;19.90;54.10;;;;;;5147745;27;20384;-48
2022/06/24 04:44:50;;;;;;;;;;;20.40;61.00;;;;;;5142585;27;19923;-45
2022/06/24 04:47:16;;;;;;;;;;;21.00;64.00;;;;;;5143016;27;19936;-45
2022/06/24 04:49:42;;;;;;;;;;;21.70;63.30;;;;;;5148237;27;19930;-44
2022/06/24 04:52:08;;;;;;;;;;;21.00;60.10;;;;;;5142726;27;19923;-44
2022/06/24 04:54:33;;;;;;;;;;;20.50;57.40;;;;;;5147987;27;20430;-47
2022/06/24 04:56:59;;;;;;;;;;;20.00;56.30;;;;;;5141053;27;19978;-47
2022/06/24 04:59:26;;;;;;;;;;;20.00;55.20;;;;;;5141020;27;19976;-49
2022/06/24 05:01:52;;;;;;;;;;;20.00;55.70;;;;;;5147479;27;20386;-46
2022/06/24 05:04:17;;;;;;;;;;;20.60;61.80;;;;;;5142401;27;19929;-48
2022/06/24 05:06:43;;;;;;;;;;;21.20;63.80;;;;;;5142521;27;20227;-46
2022/06/24 05:09:09;;;;;;;;;;;21.80;61.90;;;;;;5147873;27;19927;-47
2022/06/24 05:11:35;;;;;;;;;;;20.90;59.20;;;;;;5142514;27;19923;-47
2022/06/24 05:14:00;;;;;;;;;;;20.50;57.50;;;;;;5147581;27;20397;-49
2022/06/24 05:16:26;;;;;;;;;;;20.10;56.40;;;;;;5140378;27;19931;-46
2022/06/24 05:18:52;;;;;;;;;;;20.00;55.00;;;;;;5141363;27;19927;-46
2022/06/24 05:21:18;;;;;;;;;;;19.90;54.40;;;;;;5147238;27;19975;-47
2022/06/24 05:23:43;;;;;;;;;;;19.90;57.10;;;;;;5142126;27;19931;-47
2022/06/24 05:26:09;;;;;;;;;;;20.70;62.20;;;;;;5142232;27;19924;-47
2022/06/24 05:28:35;;;;;;;;;;;21.40;63.20;;;;;;5147933;27;19927;-48
2022/06/24 05:31:01;;;;;;;;;;;21.70;61.60;;;;;;5142017;27;19935;-46
2022/06/24 05:33:27;;;;;;;;;;;20.80;58.90;;;;;;5145803;27;19927;-52
2022/06/24 05:35:53;;;;;;;;;;;20.50;57.00;;;;;;5141412;27;19930;-48
2022/06/24 05:38:21;;;;;;;;;;;20.20;55.90;;;;;;5141270;27;19931;-46
2022/06/24 05:40:51;;;;;;;;;;;20.00;54.70;;;;;;5147506;27;19944;-45
2022/06/24 05:43:17;;;;;;;;;;;19.90;54.50;;;;;;5142104;27;20378;-46
2022/06/24 05:45:43;;;;;;;;;;;19.90;57.40;;;;;;5142066;27;20029;-46
2022/06/24 05:48:09;;;;;;;;;;;20.80;61.90;;;;;;5147778;27;19923;-47
2022/06/24 05:50:36;;;;;;;;;;;21.40;62.90;;;;;;5141710;27;20006;-45
2022/06/24 05:55:46;;;;;;;;;;;20.80;59.20;;;;;;5146671;27;19973;-45
2022/06/24 05:58:11;;;;;;;;;;;20.30;57.30;;;;;;5141546;27;19923;-46
2022/06/24 06:00:37;;;;;;;;;;;20.20;55.40;;;;;;5144922;27;19977;-53
2022/06/24 06:03:03;;;;;;;;;;;20.00;54.90;;;;;;5144798;27;20602;-46
2022/06/24 06:05:29;;;;;;;;;;;19.90;54.30;;;;;;5141879;27;20294;-46
2022/06/24 06:07:54;;;;;;;;;;;20.20;58.50;;;;;;5147017;27;19967;-49
2022/06/24 06:10:20;;;;;;;;;;;20.80;63.10;;;;;;5140103;27;20417;-48
2022/06/24 06:12:46;;;;;;;;;;;21.40;63.30;;;;;;5140223;27;19923;-51
2022/06/24 06:15:12;;;;;;;;;;;21.60;60.80;;;;;;5146526;27;19927;-44
2022/06/24 06:17:38;;;;;;;;;;;20.80;58.50;;;;;;5105548;27;19927;-52
2022/06/24 06:20:04;;;;;;;;;;;20.50;56.70;;;;;;5142828;27;19931;-55
2022/06/24 06:22:30;;;;;;;;;;;20.20;55.60;;;;;;5146677;27;20013;-48
2022/06/24 06:24:56;;;;;;;;;;;20.20;54.80;;;;;;5141480;27;19923;-46
2022/06/24 06:27:22;;;;;;;;;;;19.90;54.20;;;;;;5146776;27;19935;-47
2022/06/24 06:29:47;;;;;;;;;;;20.00;55.70;;;;;;5139109;27;19977;-47
2022/06/24 06:32:13;;;;;;;;;;;20.70;61.30;;;;;;5140556;27;20409;-47
2022/06/24 06:34:39;;;;;;;;;;;21.30;62.50;;;;;;5146348;27;20593;-51
2022/06/24 06:37:05;;;;;;;;;;;21.60;61.20;;;;;;5140996;27;19930;-45
2022/06/24 06:39:30;;;;;;;;;;;20.90;58.60;;;;;;5141277;27;19930;-46
2022/06/24 06:41:56;;;;;;;;;;;20.60;56.50;;;;;;5146644;27;19927;-48
2022/06/24 06:44:22;;;;;;;;;;;20.30;55.50;;;;;;5140989;27;19931;-48
2022/06/24 06:46:48;;;;;;;;;;;20.30;54.80;;;;;;5145482;27;19931;-49
2022/06/24 06:49:14;;;;;;;;;;;20.00;54.50;;;;;;5121200;27;19923;-47
2022/06/24 06:51:40;;;;;;;;;;;20.00;53.70;;;;;;5142727;27;20352;-47
2022/06/24 06:54:05;;;;;;;;;;;20.50;59.80;;;;;;5150043;27;20342;-50
2022/06/24 06:56:31;;;;;;;;;;;21.10;62.90;;;;;;5145135;27;19975;-46
2022/06/24 06:58:57;;;;;;;;;;;21.80;62.10;;;;;;5144894;27;19923;-44
2022/06/24 07:01:23;;;;;;;;;;;21.10;59.60;;;;;;5150448;27;19931;-46
2022/06/24 07:03:48;;;;;;;;;;;20.60;57.70;;;;;;5144655;27;20287;-47
2022/06/24 07:06:14;;;;;;;;;;;20.40;56.10;;;;;;5148175;27;19923;-49
2022/06/24 07:08:40;;;;;;;;;;;20.30;55.00;;;;;;5143624;27;19923;-50
2022/06/24 07:11:06;;;;;;;;;;;20.00;54.80;;;;;;5143892;27;19988;-45
2022/06/24 07:13:32;;;;;;;;;;;19.90;54.30;;;;;;5150207;27;19934;-47
2022/06/24 07:15:57;;;;;;;;;;;20.10;56.20;;;;;;5144758;27;19927;-47
2022/06/24 07:18:23;;;;;;;;;;;20.80;61.40;;;;;;5144308;27;20580;-47
2022/06/24 07:20:49;;;;;;;;;;;21.50;62.30;;;;;;5149794;27;19979;-52
2022/06/24 07:23:15;;;;;;;;;;;21.50;60.40;;;;;;5143388;27;19929;-49
2022/06/24 07:25:41;;;;;;;;;;;20.80;58.00;;;;;;5147614;27;19982;-53
2022/06/24 07:28:06;;;;;;;;;;;20.70;56.50;;;;;;5143794;27;20373;-48
2022/06/24 07:30:32;;;;;;;;;;;20.30;55.30;;;;;;5143874;27;19975;-44
2022/06/24 07:32:58;;;;;;;;;;;20.20;54.70;;;;;;5149644;27;19923;-45
2022/06/24 07:35:24;;;;;;;;;;;20.10;54.50;;;;;;5144126;27;19995;-48
2022/06/24 07:37:50;;;;;;;;;;;19.90;54.20;;;;;;5144147;27;19939;-49
2022/06/24 07:40:15;;;;;;;;;;;20.10;55.90;;;;;;5149098;27;19927;-47
2022/06/24 07:42:42;;;;;;;;;;;20.80;60.80;;;;;;5142536;27;19942;-46
2022/06/24 07:45:08;;;;;;;;;;;21.40;61.90;;;;;;5146001;27;20363;-58
2022/06/24 07:47:35;;;;;;;;;;;21.60;60.20;;;;;;5146342;27;19926;-45
2022/06/24 07:50:01;;;;;;;;;;;21.00;58.00;;;;;;5143705;27;19923;-44
2022/06/24 07:52:27;;;;;;;;;;;20.60;56.40;;;;;;5149529;27;19930;-44
2022/06/24 07:56:56;;;;;;;;;;;20.40;55.30;;;;;;5143855;27;19923;-45
2022/06/24 07:57:39;;;;;;;;;;;20.30;54.70;;;;;;5140997;27;20397;-46
2022/06/24 08:00:05;;;;;;;;;;;20.10;54.00;;;;;;5148157;27;19927;-49
2022/06/24 08:02:31;;;;;;;;;;;19.90;54.00;;;;;;5141840;27;19923;-50
2022/06/24 08:04:56;;;;;;;;;;;20.20;57.90;;;;;;5142867;27;19979;-46
2022/06/24 08:07:22;;;;;;;;;;;21.00;61.30;;;;;;5148586;27;19934;-46
2022/06/24 08:09:48;;;;;;;;;;;21.60;61.60;;;;;;5143641;27;20343;-46
2022/06/24 08:12:14;;;;;;;;;;;21.30;59.10;;;;;;5146890;27;19923;-54
2022/06/24 08:14:40;;;;;;;;;;;20.80;57.20;;;;;;5146104;27;20394;-50
2022/06/24 08:17:05;;;;;;;;;;;20.50;56.10;;;;;;5143397;27;19988;-44
2022/06/24 08:19:31;;;;;;;;;;;20.30;54.90;;;;;;5146592;27;19978;-47
2022/06/24 08:21:57;;;;;;;;;;;20.20;54.20;;;;;;5142034;27;19927;-46
2022/06/24 08:24:25;;;;;;;;;;;20.00;54.10;;;;;;5142973;27;20270;-46
2022/06/24 08:26:51;;;;;;;;;;;20.00;57.00;;;;;;5148346;27;19970;-45
2022/06/24 08:29:17;;;;;;;;;;;20.80;61.20;;;;;;5143060;27;19931;-49
2022/06/24 08:31:43;;;;;;;;;;;21.50;61.70;;;;;;5143282;27;19998;-52
2022/06/24 08:34:09;;;;;;;;;;;21.50;59.30;;;;;;5129997;27;20022;-47
2022/06/24 08:36:36;;;;;;;;;;;20.80;57.60;;;;;;5142467;27;19923;-56
2022/06/24 08:39:03;;;;;;;;;;;20.60;55.80;;;;;;5145733;27;22560;-46
2022/06/24 08:41:29;;;;;;;;;;;20.40;54.90;;;;;;5142182;27;19927;-46
2022/06/24 08:43:55;;;;;;;;;;;20.10;54.40;;;;;;5142565;27;19923;-46
2022/06/24 08:46:21;;;;;;;;;;;20.00;54.00;;;;;;5148436;27;19975;-45
2022/06/24 08:48:51;;;;;;;;;;;19.80;53.70;;;;;;5142617;27;19926;-47
2022/06/24 08:51:17;;;;;;;;;;;20.30;57.70;;;;;;5142683;27;19927;-47
2022/06/24 08:53:43;;;;;;;;;;;21.10;60.80;;;;;;5127966;27;21217;-46
2022/06/24 08:56:09;;;;;;;;;;;21.70;60.80;;;;;;5141105;27;20371;-44
2022/06/24 08:58:35;;;;;;;;;;;21.30;58.20;;;;;;5146711;27;19930;-53
2022/06/24 09:01:01;;;;;;;;;;;20.80;56.70;;;;;;5142419;27;20017;-46
2022/06/24 09:03:27;;;;;;;;;;;20.50;55.60;;;;;;5142454;27;20430;-47
2022/06/24 09:05:53;;;;;;;;;;;20.40;54.70;;;;;;5147846;27;19930;-46
2022/06/24 09:08:19;;;;;;;;;;;20.30;54.10;;;;;;5142429;27;20388;-43
2022/06/24 09:13:30;;;;;;;;;;;20.20;56.90;;;;;;5146463;27;19929;-50
2022/06/24 09:15:55;;;;;;;;;;;21.00;61.00;;;;;;5140610;27;19927;-45
2022/06/24 09:18:24;;;;;;;;;;;21.80;60.80;;;;;;5141301;27;20125;-46
2022/06/24 09:20:57;;;;;;;;;;;21.20;58.30;;;;;;5147206;27;20409;-45
2022/06/24 09:23:23;;;;;;;;;;;20.80;56.40;;;;;;5141959;27;19961;-46
2022/06/24 09:25:49;;;;;;;;;;;20.50;55.00;;;;;;5125957;27;19927;-56
2022/06/24 09:28:21;;;;;;;;;;;20.30;54.50;;;;;;5145953;27;20010;-48
2022/06/24 09:30:47;;;;;;;;;;;20.30;54.10;;;;;;5141991;27;19923;-47
2022/06/24 09:33:17;;;;;;;;;;;20.00;53.70;;;;;;5125134;27;19931;-49
2022/06/24 09:35:43;;;;;;;;;;;20.10;55.60;;;;;;5123036;27;19931;-45
2022/06/24 09:38:09;;;;;;;;;;;20.90;60.10;;;;;;5141662;27;19971;-46
2022/06/24 09:40:35;;;;;;;;;;;21.60;60.60;;;;;;5147021;27;19956;-45
2022/06/24 09:43:01;;;;;;;;;;;21.30;58.50;;;;;;5141806;27;19930;-45
2022/06/24 09:45:43;;;;;;;;;;;20.80;56.70;;;;;;5141910;27;20079;-44
2022/06/24 09:48:09;;;;;;;;;;;20.50;55.50;;;;;;5147133;27;19937;-46
2022/06/24 09:50:35;;;;;;;;;;;20.30;54.90;;;;;;5140384;27;19977;-46
2022/06/24 09:53:01;;;;;;;;;;;20.30;53.90;;;;;;5140359;27;19927;-49
2022/06/24 09:55:27;;;;;;;;;;;20.10;53.80;;;;;;5146875;27;20010;-46
2022/06/24 09:57:53;;;;;;;;;;;20.10;56.20;;;;;;5141397;27;19976;-46
2022/06/24 10:03:03;;;;;;;;;;;21.60;61.00;;;;;;5144340;27;20010;-46
2022/06/24 10:05:29;;;;;;;;;;;21.40;58.70;;;;;;5141673;27;19930;-45
2022/06/24 10:07:55;;;;;;;;;;;20.80;56.90;;;;;;5147145;27;19930;-50
2022/06/24 10:10:20;;;;;;;;;;;20.50;55.80;;;;;;5139647;27;19923;-49
2022/06/24 10:12:50;;;;;;;;;;;20.50;54.80;;;;;;5140987;27;20317;-45
2022/06/24 10:15:16;;;;;;;;;;;20.30;54.40;;;;;;5146551;27;20642;-47
2022/06/24 10:17:42;;;;;;;;;;;20.30;53.60;;;;;;5140992;27;19931;-45
2022/06/24 10:20:09;;;;;;;;;;;20.00;53.80;;;;;;5123163;27;20289;-44
2022/06/24 10:22:35;;;;;;;;;;;20.00;53.30;;;;;;5127154;27;19966;-46
2022/06/24 10:25:01;;;;;;;;;;;19.90;52.80;;;;;;5142596;27;20228;-46
2022/06/24 10:27:45;;;;;;;;;;;19.90;52.50;;;;;;5149695;27;19931;-46
2022/06/24 10:30:11;;;;;;;;;;;20.30;58.90;;;;;;5147905;27;19930;-46
2022/06/24 10:32:42;;;;;;;;;;;21.00;60.90;;;;;;5144817;27;19975;-45
2022/06/24 10:35:08;;;;;;;;;;;21.80;60.50;;;;;;5132120;27;20409;-46
2022/06/24 10:37:36;;;;;;;;;;;21.30;58.30;;;;;;5145291;27;19923;-45
2022/06/24 10:40:02;;;;;;;;;;;20.80;56.90;;;;;;5145493;27;19923;-44
2022/06/24 10:42:30;;;;;;;;;;;20.60;55.80;;;;;;5150766;27;19927;-46
2022/06/24 10:44:57;;;;;;;;;;;20.30;55.30;;;;;;5145008;27;20043;-47
2022/06/24 10:47:27;;;;;;;;;;;20.30;54.60;;;;;;5123370;27;20171;-45
2022/06/24 10:49:56;;;;;;;;;;;20.10;54.20;;;;;;5150273;27;19976;-46
2022/06/24 10:52:34;;;;;;;;;;;19.90;54.20;;;;;;5144863;27;20394;-46
2022/06/24 10:55:24;;;;;;;;;;;20.70;59.70;;;;;;5145009;27;19931;-47
2022/06/24 10:57:54;;;;;;;;;;;21.40;61.50;;;;;;5150355;27;20297;-46
2022/06/24 11:00:20;;;;;;;;;;;21.80;60.20;;;;;;5144875;27;20060;-46
2022/06/24 11:02:46;;;;;;;;;;;21.00;57.90;;;;;;5144662;27;20378;-48
2022/06/24 11:05:15;;;;;;;;;;;20.80;56.20;;;;;;5148154;27;19926;-45
2022/06/24 11:07:44;;;;;;;;;;;20.40;55.40;;;;;;5143693;27;19953;-44
2022/06/24 11:10:20;;;;;;;;;;;20.30;54.90;;;;;;5150028;27;19951;-48
2022/06/24 11:12:49;;;;;;;;;;;20.20;54.40;;;;;;5147954;27;19930;-46
2022/06/24 11:15:15;;;;;;;;;;;20.10;53.80;;;;;;5144515;27;20417;-45
2022/06/24 11:17:41;;;;;;;;;;;20.20;53.40;;;;;;5149935;27;19927;-45
2022/06/24 11:20:08;;;;;;;;;;;20.10;53.40;;;;;;5125699;27;19931;-45
2022/06/24 11:22:46;;;;;;;;;;;19.90;53.20;;;;;;5124742;27;19940;-47
2022/06/24 11:25:14;;;;;;;;;;;19.70;54.70;;;;;;5148609;27;19943;-47
2022/06/24 11:27:40;;;;;;;;;;;20.40;60.50;;;;;;5144103;27;20167;-50
2022/06/24 11:30:06;;;;;;;;;;;21.30;61.50;;;;;;5144177;27;20009;-48
2022/06/24 11:32:51;;;;;;;;;;;21.80;61.40;;;;;;5149757;27;20019;-45
2022/06/24 11:35:17;;;;;;;;;;;21.40;58.80;;;;;;5144433;27;19963;-45
2022/06/24 11:37:43;;;;;;;;;;;20.60;57.50;;;;;;5143159;27;20394;-44
2022/06/24 11:40:09;;;;;;;;;;;20.60;55.40;;;;;;5149438;27;19974;-50
2022/06/24 11:42:35;;;;;;;;;;;20.30;55.10;;;;;;5142037;27;20345;-53
2022/06/24 11:45:01;;;;;;;;;;;20.00;54.50;;;;;;5149042;27;19923;-50
2022/06/24 11:47:34;;;;;;;;;;;20.20;53.80;;;;;;5143735;27;20374;-47
2022/06/24 11:49:59;;;;;;;;;;;19.90;53.70;;;;;;5143837;27;19927;-47
2022/06/24 11:52:25;;;;;;;;;;;20.60;59.30;;;;;;5149548;27;19923;-46
2022/06/24 11:54:51;;;;;;;;;;;21.30;61.50;;;;;;5143959;27;19937;-47
2022/06/24 11:57:17;;;;;;;;;;;21.80;60.50;;;;;;5143676;27;19933;-48
2022/06/24 11:59:43;;;;;;;;;;;21.10;58.20;;;;;;5128875;27;20208;-46
2022/06/24 12:02:11;;;;;;;;;;;20.80;56.30;;;;;;5142286;27;20335;-48
2022/06/24 12:04:37;;;;;;;;;;;20.60;55.00;;;;;;5125066;27;19937;-52
2022/06/24 12:07:03;;;;;;;;;;;20.10;54.70;;;;;;5130346;27;19923;-48
2022/06/24 12:09:29;;;;;;;;;;;20.10;54.00;;;;;;5125019;27;19923;-45
2022/06/24 12:11:55;;;;;;;;;;;20.00;53.60;;;;;;5148881;27;20358;-49
2022/06/24 12:14:22;;;;;;;;;;;20.10;54.80;;;;;;5124586;27;19927;-51
2022/06/24 12:16:57;;;;;;;;;;;20.80;59.70;;;;;;5143055;27;19922;-49
2022/06/24 12:19:27;;;;;;;;;;;21.40;60.80;;;;;;5146696;27;19931;-48
2022/06/24 12:22:03;;;;;;;;;;;21.50;58.70;;;;;;5142777;27;19970;-46
2022/06/24 12:24:29;;;;;;;;;;;20.90;56.80;;;;;;5142799;27;20567;-45
2022/06/24 12:26:55;;;;;;;;;;;20.60;55.20;;;;;;5148668;27;19967;-45
2022/06/24 12:29:29;;;;;;;;;;;20.20;55.00;;;;;;5143126;27;19930;-48
2022/06/24 12:31:55;;;;;;;;;;;20.30;53.70;;;;;;5143417;27;20584;-47
2022/06/24 12:34:24;;;;;;;;;;;20.30;53.30;;;;;;5130073;27;20014;-45
2022/06/24 12:36:54;;;;;;;;;;;20.30;53.20;;;;;;5141309;27;20014;-48
2022/06/24 12:39:21;;;;;;;;;;;20.40;58.30;;;;;;5144874;27;19923;-55
2022/06/24 12:41:47;;;;;;;;;;;21.20;60.40;;;;;;5127272;27;20343;-47
2022/06/24 12:44:13;;;;;;;;;;;21.80;60.10;;;;;;5142608;27;20226;-46
2022/06/24 12:52:27;;;;;;;;;;;20.40;55.40;;;;;;5142791;27;19923;-46
2022/06/24 12:54:53;;;;;;;;;;;20.10;54.60;;;;;;5142312;27;20358;-57
2022/06/24 12:57:19;;;;;;;;;;;20.10;54.00;;;;;;5145969;27;19995;-45
2022/06/24 12:59:45;;;;;;;;;;;19.80;55.10;;;;;;5142094;27;19931;-47
2022/06/24 13:02:10;;;;;;;;;;;20.50;60.50;;;;;;5147771;27;19934;-47
2022/06/24 13:04:36;;;;;;;;;;;21.30;61.70;;;;;;5142682;27;19935;-46
2022/06/24 13:07:04;;;;;;;;;;;21.70;60.30;;;;;;5142594;27;19971;-48
2022/06/24 13:09:29;;;;;;;;;;;20.90;58.20;;;;;;5147848;27;19929;-46
2022/06/24 13:11:56;;;;;;;;;;;20.40;57.10;;;;;;5142050;27;19928;-45
2022/06/24 13:14:21;;;;;;;;;;;20.30;56.30;;;;;;5140202;27;19927;-45
2022/06/24 13:16:47;;;;;;;;;;;20.10;54.90;;;;;;5147247;27;19941;-45
2022/06/24 13:19:13;;;;;;;;;;;19.70;54.70;;;;;;5141870;27;19923;-47
2022/06/24 13:21:39;;;;;;;;;;;19.80;57.30;;;;;;5147620;27;20003;-47
2022/06/24 13:24:05;;;;;;;;;;;20.80;61.60;;;;;;5142182;27;19927;-46
2022/06/24 13:26:30;;;;;;;;;;;21.30;62.90;;;;;;5142378;27;20399;-49
2022/06/24 13:28:56;;;;;;;;;;;21.50;61.80;;;;;;5147443;27;19927;-47
2022/06/24 13:31:22;;;;;;;;;;;20.70;59.80;;;;;;5140797;27;19930;-46
2022/06/24 13:33:48;;;;;;;;;;;20.60;57.30;;;;;;5140590;27;20010;-46
2022/06/24 13:36:14;;;;;;;;;;;20.40;55.90;;;;;;5147021;27;20331;-47
2022/06/24 13:38:40;;;;;;;;;;;20.00;55.50;;;;;;5141623;27;19926;-47
2022/06/24 13:41:06;;;;;;;;;;;19.90;54.70;;;;;;5147528;27;20306;-47
2022/06/24 13:43:32;;;;;;;;;;;19.80;57.30;;;;;;5141927;27;20434;-45
2022/06/24 13:45:57;;;;;;;;;;;20.60;63.20;;;;;;5141633;27;20016;-47
2022/06/24 13:48:23;;;;;;;;;;;21.30;64.50;;;;;;5147107;27;19923;-51
2022/06/24 13:50:49;;;;;;;;;;;21.80;63.30;;;;;;5139982;27;19926;-46
2022/06/24 13:53:15;;;;;;;;;;;21.00;60.50;;;;;;5141027;27;20001;-45
2022/06/24 13:55:41;;;;;;;;;;;20.70;58.00;;;;;;5147060;27;20309;-45
2022/06/24 13:58:07;;;;;;;;;;;20.40;57.30;;;;;;5123304;27;19941;-45
2022/06/24 14:00:33;;;;;;;;;;;20.30;56.10;;;;;;5148605;27;19981;-55
2022/06/24 14:02:59;;;;;;;;;;;20.10;55.10;;;;;;5147042;27;20370;-47
2022/06/24 14:05:25;;;;;;;;;;;19.70;55.10;;;;;;5145855;27;19927;-48
2022/06/24 14:07:50;;;;;;;;;;;20.00;56.10;;;;;;5150195;27;19946;-46
2022/06/24 14:10:16;;;;;;;;;;;20.70;62.00;;;;;;5144594;27;20301;-46
2022/06/24 14:12:42;;;;;;;;;;;21.30;64.60;;;;;;5126797;27;19937;-47
2022/06/24 14:15:10;;;;;;;;;;;21.80;64.00;;;;;;5150953;27;20013;-47
2022/06/24 14:17:36;;;;;;;;;;;20.90;60.60;;;;;;5127727;27;19930;-45
2022/06/24 14:20:03;;;;;;;;;;;20.70;58.30;;;;;;5147082;27;19970;-54
2022/06/24 14:22:29;;;;;;;;;;;20.20;57.20;;;;;;5150461;27;19974;-45
2022/06/24 14:24:54;;;;;;;;;;;20.10;55.60;;;;;;5145598;27;19930;-47
2022/06/24 14:27:20;;;;;;;;;;;19.90;55.20;;;;;;5148951;27;19937;-47
2022/06/24 14:29:46;;;;;;;;;;;19.80;54.80;;;;;;5144810;27;19973;-46